createdAt,value
2022-12-23T00:01:46.305Z,13.78
2022-12-23T00:04:12.810Z,13.60
2022-12-23T00:06:39.254Z,13.90
2022-12-23T00:09:05.687Z,13.75
2022-12-23T00:11:32.210Z,13.78
2022-12-23T00:14:21.536Z,13.95
2022-12-23T00:16:49.400Z,14.05
2022-12-23T00:19:16.028Z,13.96
2022-12-23T00:21:42.971Z,13.58
2022-12-23T00:24:09.520Z,13.93
2022-12-23T00:26:36.028Z,13.78
2022-12-23T00:29:04.589Z,13.86
2022-12-23T00:31:31.311Z,14.01
2022-12-23T00:33:58.133Z,14.16
2022-12-23T00:36:32.213Z,14.17
2022-12-23T00:39:18.402Z,14.14
2022-12-23T00:42:03.586Z,14.06
2022-12-23T00:44:29.982Z,13.90
2022-12-23T00:46:59.245Z,13.77
2022-12-23T00:49:45.428Z,13.96
2022-12-23T00:52:13.474Z,14.23
2022-12-23T00:54:40.232Z,13.82
2022-12-23T00:57:07.143Z,14.06
2022-12-23T00:59:34.184Z,13.86
2022-12-23T01:02:19.462Z,13.92
2022-12-23T01:05:06.196Z,13.88
2022-12-23T01:07:32.708Z,13.94
2022-12-23T01:09:59.353Z,13.73
2022-12-23T01:12:25.782Z,13.90
2022-12-23T01:14:52.264Z,13.87
2022-12-23T01:17:19.029Z,13.89
2022-12-23T01:19:45.944Z,13.92
2022-12-23T01:22:12.452Z,13.78
2022-12-23T01:24:38.854Z,14.00
2022-12-23T01:27:05.268Z,14.12
2022-12-23T01:29:31.818Z,14.05
2022-12-23T01:31:58.326Z,14.20
2022-12-23T01:34:26.002Z,14.38
2022-12-23T01:36:54.899Z,14.48
2022-12-23T01:39:21.284Z,14.06
2022-12-23T01:42:06.660Z,13.90
2022-12-23T01:45:05.621Z,13.98
2022-12-23T01:47:32.070Z,14.03
2022-12-23T01:50:07.590Z,14.33
2022-12-23T01:52:36.191Z,14.09
2022-12-23T01:55:02.815Z,13.82
2022-12-23T01:57:29.632Z,13.82
2022-12-23T02:00:14.787Z,13.93
2022-12-23T02:03:01.131Z,13.85
2022-12-23T02:05:27.857Z,13.58
2022-12-23T02:08:13.340Z,14.12
2022-12-23T02:10:59.964Z,14.16
2022-12-23T02:14:05.028Z,13.79
2022-12-23T02:16:33.723Z,14.01
2022-12-23T02:19:11.655Z,13.92
2022-12-23T02:21:44.281Z,14.04
2022-12-23T02:24:40.880Z,14.05
2022-12-23T02:27:07.267Z,14.11
2022-12-23T02:29:52.549Z,13.91
2022-12-23T02:32:32.105Z,14.08
2022-12-23T02:35:20.723Z,14.31
2022-12-23T02:37:55.882Z,14.47
2022-12-23T02:40:31.327Z,14.49
2022-12-23T02:42:57.631Z,14.37
2022-12-23T02:45:27.416Z,14.29
2022-12-23T02:47:56.818Z,14.14
2022-12-23T02:50:29.824Z,14.29
2022-12-23T02:52:58.783Z,14.14
2022-12-23T02:55:30.217Z,14.11
2022-12-23T02:57:59.708Z,13.96
2022-12-23T03:00:26.811Z,14.14
2022-12-23T03:02:53.887Z,14.24
2022-12-23T03:05:24.762Z,14.26
2022-12-23T03:07:53.419Z,14.38
2022-12-23T03:10:33.819Z,14.28
2022-12-23T03:13:23.815Z,14.29
2022-12-23T03:16:09.317Z,14.03
2022-12-23T03:18:38.684Z,14.41
2022-12-23T03:21:05.365Z,14.43
2022-12-23T03:23:38.238Z,14.37
2022-12-23T03:26:11.767Z,14.21
2022-12-23T03:28:38.224Z,14.42
2022-12-23T03:31:08.135Z,14.40
2022-12-23T03:33:37.265Z,14.23
2022-12-23T03:36:12.326Z,14.29
2022-12-23T03:38:40.726Z,14.20
2022-12-23T03:41:09.640Z,14.07
2022-12-23T03:43:50.673Z,13.92
2022-12-23T03:46:20.340Z,14.31
2022-12-23T03:48:49.130Z,14.09
2022-12-23T03:51:18.358Z,14.18
2022-12-23T03:53:57.199Z,14.16
2022-12-23T03:56:27.329Z,13.96
2022-12-23T03:58:57.743Z,13.90
2022-12-23T04:01:50.699Z,13.89
2022-12-23T04:04:36.049Z,13.96
2022-12-23T04:07:25.694Z,13.92
2022-12-23T04:09:53.415Z,13.52
2022-12-23T04:12:22.340Z,13.85
2022-12-23T04:14:49.299Z,13.83
2022-12-23T04:17:16.349Z,13.95
2022-12-23T04:19:45.252Z,13.69
2022-12-23T04:22:12.492Z,13.81
2022-12-23T04:24:39.309Z,13.38
2022-12-23T04:27:06.689Z,13.50
2022-12-23T04:29:33.340Z,13.42
2022-12-23T04:32:00.108Z,13.51
2022-12-23T04:34:26.648Z,13.83
2022-12-23T04:36:53.284Z,13.47
2022-12-23T04:39:19.962Z,13.70
2022-12-23T04:41:46.373Z,13.41
2022-12-23T04:44:12.927Z,13.81
2022-12-23T04:46:39.677Z,13.48
2022-12-23T04:49:06.385Z,13.57
2022-12-23T04:51:32.883Z,13.81
2022-12-23T04:53:59.375Z,13.67
2022-12-23T04:56:26.120Z,13.69
2022-12-23T04:58:52.837Z,13.67
2022-12-23T05:01:19.474Z,14.08
2022-12-23T05:03:45.947Z,13.93
2022-12-23T05:06:12.575Z,13.89
2022-12-23T05:08:39.066Z,13.82
2022-12-23T05:11:06.039Z,13.78
2022-12-23T05:13:32.490Z,13.65
2022-12-23T05:15:58.989Z,13.41
2022-12-23T05:18:25.576Z,13.51
2022-12-23T05:20:51.996Z,13.50
2022-12-23T05:23:24.702Z,13.99
2022-12-23T05:25:52.696Z,13.65
2022-12-23T05:28:25.423Z,13.49
2022-12-23T05:31:18.126Z,13.20
2022-12-23T05:33:44.682Z,13.81
2022-12-23T05:36:11.578Z,13.96
2022-12-23T05:38:37.911Z,13.70
2022-12-23T05:41:04.948Z,13.68
2022-12-23T05:43:31.272Z,13.32
2022-12-23T05:45:57.738Z,13.69
2022-12-23T05:48:24.111Z,14.08
2022-12-23T05:50:51.080Z,13.89
2022-12-23T05:53:17.690Z,14.03
2022-12-23T05:55:44.014Z,13.69
2022-12-23T05:58:10.522Z,13.87
2022-12-23T06:00:37.268Z,13.66
2022-12-23T06:03:03.890Z,13.71
2022-12-23T06:05:30.354Z,13.52
2022-12-23T06:07:57.012Z,13.30
2022-12-23T06:10:23.527Z,12.82
2022-12-23T06:12:50.091Z,13.52
2022-12-23T06:15:16.510Z,12.84
2022-12-23T06:17:42.888Z,13.09
2022-12-23T06:20:12.175Z,13.84
2022-12-23T06:22:44.729Z,13.95
2022-12-23T06:25:11.041Z,13.60
2022-12-23T06:27:37.529Z,13.48
2022-12-23T06:30:04.342Z,13.89
2022-12-23T06:32:36.219Z,13.83
2022-12-23T06:35:05.024Z,13.96
2022-12-23T06:37:31.376Z,14.45
2022-12-23T06:39:57.687Z,14.29
2022-12-23T06:42:24.038Z,13.53
2022-12-23T06:44:50.337Z,13.60
2022-12-23T06:47:16.657Z,13.85
2022-12-23T06:49:43.069Z,14.18
2022-12-23T06:52:10.045Z,14.20
2022-12-23T06:54:36.494Z,13.73
2022-12-23T06:57:03.190Z,12.85
2022-12-23T06:59:29.931Z,13.51
2022-12-23T07:01:56.396Z,13.87
2022-12-23T07:04:23.010Z,14.18
2022-12-23T07:06:49.622Z,14.20
2022-12-23T07:09:15.927Z,14.02
2022-12-23T07:11:42.325Z,14.38
2022-12-23T07:14:08.685Z,14.15
2022-12-23T07:16:35.254Z,14.26
2022-12-23T07:19:01.621Z,13.97
2022-12-23T07:21:29.786Z,14.08
2022-12-23T07:23:56.905Z,13.49
2022-12-23T07:26:23.236Z,13.69
2022-12-23T07:28:49.553Z,13.54
2022-12-23T07:31:16.028Z,14.03
2022-12-23T07:33:42.532Z,13.27
2022-12-23T07:36:08.973Z,13.83
2022-12-23T07:38:35.256Z,13.20
2022-12-23T07:41:01.658Z,13.70
2022-12-23T07:43:27.997Z,13.99
2022-12-23T07:45:59.942Z,14.20
2022-12-23T07:48:27.285Z,13.66
2022-12-23T07:50:53.571Z,13.64
2022-12-23T07:53:19.846Z,13.82
2022-12-23T07:55:48.090Z,13.40
2022-12-23T07:58:17.895Z,13.58
2022-12-23T08:00:44.589Z,13.64
2022-12-23T08:03:11.871Z,14.05
2022-12-23T08:05:38.396Z,14.01
2022-12-23T08:08:05.081Z,12.76
2022-12-23T08:10:31.434Z,12.95
2022-12-23T08:13:00.848Z,13.94
2022-12-23T08:15:27.321Z,13.74
2022-12-23T08:17:55.295Z,13.18
2022-12-23T08:20:21.853Z,13.62
2022-12-23T08:22:48.281Z,14.36
2022-12-23T08:25:14.842Z,14.05
2022-12-23T08:27:41.326Z,13.95
2022-12-23T08:30:08.220Z,13.09
2022-12-23T08:32:34.771Z,13.97
2022-12-23T08:35:01.278Z,13.20
2022-12-23T08:37:27.760Z,13.87
2022-12-23T08:39:54.296Z,13.88
2022-12-23T08:42:20.811Z,13.51
2022-12-23T08:44:47.264Z,14.17
2022-12-23T08:47:13.636Z,14.01
2022-12-23T08:49:40.302Z,13.99
2022-12-23T08:52:06.588Z,13.83
2022-12-23T08:54:32.950Z,13.92
2022-12-23T08:56:59.403Z,14.08
2022-12-23T08:59:25.867Z,14.47
2022-12-23T09:01:52.483Z,14.45
2022-12-23T09:04:19.174Z,14.74
2022-12-23T09:06:46.098Z,14.45
2022-12-23T09:09:14.368Z,14.24
2022-12-23T09:11:40.977Z,14.27
2022-12-23T09:14:10.045Z,13.83
2022-12-23T09:16:36.898Z,14.20
2022-12-23T09:19:03.461Z,14.43
2022-12-23T09:21:29.867Z,14.35
2022-12-23T09:23:56.530Z,14.72
2022-12-23T09:26:24.252Z,14.62
2022-12-23T09:28:51.107Z,14.78
2022-12-23T09:31:17.934Z,14.90
2022-12-23T09:33:47.172Z,14.49
2022-12-23T09:36:13.814Z,14.67
2022-12-23T09:38:40.351Z,14.30
2022-12-23T09:41:26.928Z,13.66
2022-12-23T09:44:01.197Z,14.48
2022-12-23T09:46:30.005Z,14.32
2022-12-23T09:49:02.814Z,14.38
2022-12-23T09:51:30.549Z,14.84
2022-12-23T09:54:00.183Z,14.99
2022-12-23T09:56:32.845Z,14.86
2022-12-23T09:59:02.134Z,14.77
2022-12-23T10:01:28.493Z,14.88
2022-12-23T10:04:03.923Z,14.59
2022-12-23T10:06:30.757Z,14.43
2022-12-23T10:08:59.784Z,14.61
2022-12-23T10:11:29.925Z,14.92
2022-12-23T10:14:02.752Z,14.77
2022-12-23T10:16:31.433Z,14.52
2022-12-23T10:18:57.947Z,14.47
2022-12-23T10:21:33.402Z,14.39
2022-12-23T10:24:04.095Z,14.63
2022-12-23T10:26:45.621Z,14.98
2022-12-23T10:29:18.257Z,15.18
2022-12-23T10:31:45.186Z,15.26
2022-12-23T10:34:17.541Z,15.16
2022-12-23T10:37:00.761Z,15.17
2022-12-23T10:39:30.245Z,15.10
2022-12-23T10:42:05.772Z,15.30
2022-12-23T10:44:42.317Z,14.99
2022-12-23T10:47:08.918Z,15.11
2022-12-23T10:49:47.590Z,14.80
2022-12-23T10:52:17.472Z,14.81
2022-12-23T10:54:45.276Z,15.13
2022-12-23T10:57:12.407Z,15.19
2022-12-23T10:59:39.291Z,15.26
2022-12-23T11:02:12.141Z,15.31
2022-12-23T11:04:45.971Z,15.57
2022-12-23T11:10:13.217Z,15.22
2022-12-23T11:12:42.591Z,15.34
2022-12-23T11:15:26.724Z,15.14
2022-12-23T11:18:07.716Z,14.85
2022-12-23T11:20:35.287Z,14.47
2022-12-23T11:23:02.781Z,14.96
2022-12-23T11:25:43.512Z,14.94
2022-12-23T11:28:10.813Z,15.04
2022-12-23T11:30:50.327Z,14.55
2022-12-23T11:33:29.662Z,14.31
2022-12-23T11:36:25.209Z,14.78
2022-12-23T11:39:02.543Z,13.52
2022-12-23T11:41:30.305Z,14.49
2022-12-23T11:44:01.830Z,14.76
2022-12-23T11:46:29.886Z,14.93
2022-12-23T11:49:06.960Z,15.09
2022-12-23T11:51:33.411Z,15.08
2022-12-23T11:54:00.960Z,14.99
2022-12-23T11:56:28.986Z,14.56
2022-12-23T11:59:02.224Z,15.07
2022-12-23T12:01:30.390Z,14.69
2022-12-23T12:03:59.576Z,15.35
2022-12-23T12:06:26.733Z,14.91
2022-12-23T12:08:54.365Z,15.17
2022-12-23T12:11:44.185Z,14.96
2022-12-23T12:14:19.760Z,14.35
2022-12-23T12:16:51.819Z,14.25
2022-12-23T12:19:30.619Z,15.08
2022-12-23T12:22:00.563Z,15.02
2022-12-23T12:24:37.001Z,15.11
2022-12-23T12:27:06.598Z,14.32
2022-12-23T12:29:33.105Z,13.87
2022-12-23T12:32:00.119Z,13.69
2022-12-23T12:34:38.332Z,14.24
2022-12-23T12:37:25.899Z,14.59
2022-12-23T12:40:07.374Z,14.83
2022-12-23T12:42:40.223Z,14.71
2022-12-23T12:45:16.599Z,14.91
2022-12-23T12:48:09.981Z,14.01
2022-12-23T12:50:49.093Z,14.17
2022-12-23T12:53:18.694Z,14.20
2022-12-23T12:55:47.953Z,14.15
2022-12-23T12:58:21.773Z,14.08
2022-12-23T13:00:57.152Z,13.39
2022-12-23T13:03:44.515Z,14.05
2022-12-23T13:06:29.616Z,14.52
2022-12-23T13:09:08.892Z,14.94
2022-12-23T13:11:58.043Z,15.55
2022-12-23T13:14:33.902Z,15.98
2022-12-23T13:17:07.373Z,15.98
2022-12-23T13:19:39.782Z,16.23
2022-12-23T13:22:09.069Z,15.88
2022-12-23T13:24:54.381Z,16.26
2022-12-23T13:27:30.210Z,16.31
2022-12-23T13:30:05.019Z,16.10
2022-12-23T13:32:31.289Z,16.35
2022-12-23T13:35:08.085Z,16.54
2022-12-23T13:37:53.299Z,16.10
2022-12-23T13:40:22.630Z,16.05
2022-12-23T13:42:52.485Z,16.30
2022-12-23T13:45:19.516Z,16.42
2022-12-23T13:47:52.129Z,16.37
2022-12-23T13:50:24.601Z,16.37
2022-12-23T13:52:51.118Z,15.97
2022-12-23T13:55:36.152Z,15.74
2022-12-23T13:58:02.429Z,15.71
2022-12-23T14:00:32.950Z,15.85
2022-12-23T14:03:02.445Z,15.56
2022-12-23T14:05:35.339Z,15.93
2022-12-23T14:08:06.962Z,16.36
2022-12-23T14:10:34.285Z,16.41
2022-12-23T14:13:03.048Z,15.88
2022-12-23T14:15:48.826Z,16.26
2022-12-23T14:18:34.170Z,16.30
2022-12-23T14:21:19.201Z,16.24
2022-12-23T14:23:45.462Z,16.29
2022-12-23T14:26:11.837Z,16.17
2022-12-23T14:29:10.718Z,16.36
2022-12-23T14:31:41.743Z,16.24
2022-12-23T14:34:17.159Z,16.32
2022-12-23T14:37:02.312Z,16.36
2022-12-23T14:39:33.104Z,16.33
2022-12-23T14:42:05.786Z,16.02
2022-12-23T14:44:36.085Z,16.21
2022-12-23T14:47:04.267Z,15.98
2022-12-23T14:49:40.720Z,15.43
2022-12-23T14:52:26.335Z,15.11
2022-12-23T14:55:21.125Z,15.76
2022-12-23T14:57:40.143Z,15.83
2022-12-23T15:00:06.848Z,15.47
2022-12-23T15:02:35.483Z,15.95
2022-12-23T15:05:02.608Z,16.05
2022-12-23T15:07:32.693Z,16.08
2022-12-23T15:10:01.429Z,16.05
2022-12-23T15:12:36.482Z,15.99
2022-12-23T15:15:05.310Z,15.96
2022-12-23T15:17:36.189Z,15.89
2022-12-23T15:20:12.484Z,15.62
2022-12-23T15:22:39.562Z,15.41
2022-12-23T15:25:18.260Z,15.72
2022-12-23T15:27:44.772Z,15.59
2022-12-23T15:30:12.668Z,15.46
2022-12-23T15:32:41.555Z,15.48
2022-12-23T15:35:08.669Z,15.44
2022-12-23T15:37:35.199Z,15.03
2022-12-23T15:40:13.370Z,15.37
2022-12-23T15:42:46.141Z,15.50
2022-12-23T15:45:21.766Z,15.72
2022-12-23T15:47:48.371Z,15.70
2022-12-23T15:50:15.987Z,15.72
2022-12-23T15:52:43.320Z,15.62
2022-12-23T15:55:21.404Z,14.87
2022-12-23T15:57:50.581Z,14.65
2022-12-23T16:00:22.016Z,14.92
2022-12-23T16:03:00.443Z,14.87
2022-12-23T16:05:36.055Z,14.57
2022-12-23T16:08:16.245Z,14.78
2022-12-23T16:10:43.636Z,14.53
2022-12-23T16:13:18.122Z,14.11
2022-12-23T16:15:45.118Z,14.23
2022-12-23T16:18:13.482Z,14.61
2022-12-23T16:20:45.514Z,14.56
2022-12-23T16:23:12.830Z,14.55
2022-12-23T16:25:51.058Z,14.69
2022-12-23T16:28:24.522Z,14.83
2022-12-23T16:30:56.434Z,14.93
2022-12-23T16:33:38.349Z,14.91
2022-12-23T16:36:37.394Z,14.64
2022-12-23T16:39:09.234Z,14.32
2022-12-23T16:41:36.172Z,14.27
2022-12-23T16:44:03.603Z,14.65
2022-12-23T16:46:38.163Z,14.66
2022-12-23T16:49:06.826Z,14.58
2022-12-23T16:51:35.210Z,14.38
2022-12-23T16:54:01.900Z,14.36
2022-12-23T16:56:30.247Z,14.62
2022-12-23T16:58:56.806Z,14.65
2022-12-23T17:01:28.403Z,14.63
2022-12-23T17:03:55.936Z,14.59
2022-12-23T17:06:23.153Z,14.54
2022-12-23T17:08:49.870Z,14.38
2022-12-23T17:11:17.339Z,14.46
2022-12-23T17:13:44.916Z,14.45
2022-12-23T17:16:29.514Z,14.38
2022-12-23T17:18:55.915Z,14.28
2022-12-23T17:21:25.264Z,14.64
2022-12-23T17:23:56.803Z,14.22
2022-12-23T17:26:23.536Z,13.86
2022-12-23T17:28:50.372Z,13.81
2022-12-23T17:31:24.346Z,14.31
2022-12-23T17:33:54.296Z,14.20
2022-12-23T17:36:20.897Z,14.07
2022-12-23T17:38:47.322Z,14.58
2022-12-23T17:41:31.386Z,14.56
2022-12-23T17:43:58.553Z,14.33
2022-12-23T17:46:25.800Z,14.59
2022-12-23T17:48:52.625Z,14.72
2022-12-23T17:51:21.613Z,14.35
2022-12-23T17:53:53.171Z,14.12
2022-12-23T17:56:24.414Z,14.20
2022-12-23T17:58:51.503Z,13.99
2022-12-23T18:01:21.035Z,14.05
2022-12-23T18:03:48.579Z,14.21
2022-12-23T18:06:16.156Z,14.10
2022-12-23T18:08:43.517Z,14.13
2022-12-23T18:11:17.361Z,13.62
2022-12-23T18:13:44.472Z,13.79
2022-12-23T18:16:12.829Z,13.50
2022-12-23T18:18:46.138Z,13.84
2022-12-23T18:21:26.681Z,13.98
2022-12-23T18:23:58.923Z,14.05
2022-12-23T18:26:25.387Z,14.11
2022-12-23T18:28:53.980Z,13.91
2022-12-23T18:31:23.138Z,14.02
2022-12-23T18:33:50.619Z,13.90
2022-12-23T18:36:20.786Z,13.89
2022-12-23T18:38:47.597Z,14.05
2022-12-23T18:41:14.161Z,13.96
2022-12-23T18:43:41.076Z,14.01
2022-12-23T18:46:08.206Z,14.06
2022-12-23T18:48:34.613Z,14.23
2022-12-23T18:51:02.482Z,14.09
2022-12-23T18:53:29.157Z,14.13
2022-12-23T18:55:55.893Z,13.92
2022-12-23T18:58:22.381Z,14.15
2022-12-23T19:00:49.930Z,14.03
2022-12-23T19:03:27.353Z,14.18
2022-12-23T19:05:54.471Z,14.04
2022-12-23T19:08:27.876Z,13.87
2022-12-23T19:10:55.080Z,14.03
2022-12-23T19:13:28.644Z,14.16
2022-12-23T19:15:55.193Z,14.07
2022-12-23T19:18:23.387Z,13.81
2022-12-23T19:20:50.004Z,13.83
2022-12-23T19:23:23.948Z,13.90
2022-12-23T19:25:55.381Z,13.85
2022-12-23T19:28:22.167Z,13.67
2022-12-23T19:30:49.074Z,13.80
2022-12-23T19:33:15.844Z,13.65
2022-12-23T19:35:42.971Z,13.51
2022-12-23T19:38:09.479Z,13.49
2022-12-23T19:40:36.333Z,13.08
2022-12-23T19:43:03.350Z,12.21
2022-12-23T19:45:30.507Z,12.23
2022-12-23T19:47:57.217Z,11.99
2022-12-23T19:50:23.939Z,11.64
2022-12-23T19:52:51.752Z,12.26
2022-12-23T19:55:19.859Z,12.19
2022-12-23T19:57:47.896Z,12.96
2022-12-23T20:00:16.058Z,12.76
2022-12-23T20:02:43.615Z,12.00
2022-12-23T20:05:10.700Z,11.79
2022-12-23T20:07:37.847Z,11.83
2022-12-23T20:10:05.185Z,11.95
2022-12-23T20:12:31.783Z,12.14
2022-12-23T20:14:58.898Z,11.26
2022-12-23T20:17:25.472Z,12.31
2022-12-23T20:19:52.052Z,11.95
2022-12-23T20:22:18.550Z,12.01
2022-12-23T20:24:45.115Z,11.72
2022-12-23T20:27:15.732Z,12.17
2022-12-23T20:29:44.456Z,12.43
2022-12-23T20:32:11.156Z,11.56
2022-12-23T20:34:40.076Z,11.94
2022-12-23T20:37:07.820Z,11.95
2022-12-23T20:39:34.743Z,12.43
2022-12-23T20:42:01.436Z,12.01
2022-12-23T20:44:35.063Z,11.62
2022-12-23T20:47:03.993Z,12.23
2022-12-23T20:49:30.617Z,11.76
2022-12-23T20:51:57.109Z,11.71
2022-12-23T20:54:28.120Z,12.22
2022-12-23T20:56:58.731Z,12.49
2022-12-23T20:59:25.523Z,11.98
2022-12-23T21:01:52.221Z,11.27
2022-12-23T21:04:18.901Z,12.19
2022-12-23T21:06:45.610Z,11.99
2022-12-23T21:09:13.990Z,11.18
2022-12-23T21:11:43.133Z,11.30
2022-12-23T21:14:10.792Z,11.48
2022-12-23T21:16:38.805Z,10.89
2022-12-23T21:19:06.534Z,11.32
2022-12-23T21:21:33.202Z,11.58
2022-12-23T21:24:00.835Z,11.67
2022-12-23T21:26:28.983Z,12.07
2022-12-23T21:29:00.295Z,11.51
2022-12-23T21:31:27.408Z,11.32
2022-12-23T21:33:54.175Z,11.01
2022-12-23T21:36:21.995Z,11.11
2022-12-23T21:38:49.083Z,11.56
2022-12-23T21:41:17.442Z,11.89
2022-12-23T21:43:44.056Z,12.10
2022-12-23T21:46:11.942Z,12.22
2022-12-23T21:48:38.992Z,12.03
2022-12-23T21:51:24.964Z,12.20
2022-12-23T21:53:52.998Z,11.70
2022-12-23T21:56:21.369Z,12.05
2022-12-23T21:58:47.973Z,11.74
2022-12-23T22:01:16.048Z,12.13
2022-12-23T22:03:43.251Z,12.00
2022-12-23T22:06:12.802Z,11.80
2022-12-23T22:08:40.061Z,11.95
2022-12-23T22:11:08.182Z,12.21
2022-12-23T22:13:35.067Z,11.97
2022-12-23T22:16:02.057Z,11.81
2022-12-23T22:18:28.733Z,11.62
2022-12-23T22:20:55.193Z,11.36
2022-12-23T22:23:21.758Z,11.45
2022-12-23T22:25:51.955Z,11.50
2022-12-23T22:28:18.639Z,11.50
2022-12-23T22:30:46.291Z,12.18
2022-12-23T22:33:12.859Z,11.97
2022-12-23T22:35:39.447Z,12.28
2022-12-23T22:38:06.027Z,12.54
2022-12-23T22:40:32.590Z,11.89
2022-12-23T22:42:59.216Z,12.35
2022-12-23T22:45:25.733Z,12.50
2022-12-23T22:47:52.302Z,12.44
2022-12-23T22:50:19.615Z,12.22
2022-12-23T22:52:46.255Z,12.10
2022-12-23T22:55:12.615Z,11.57
2022-12-23T22:57:39.615Z,11.44
2022-12-23T23:00:12.211Z,11.59
2022-12-23T23:02:39.585Z,11.47
2022-12-23T23:05:12.452Z,11.68
2022-12-23T23:07:40.448Z,11.54
2022-12-23T23:10:08.166Z,11.45
2022-12-23T23:12:35.050Z,11.55
2022-12-23T23:15:01.915Z,11.31
2022-12-23T23:17:29.579Z,11.60
2022-12-23T23:19:56.281Z,11.48
2022-12-23T23:22:23.778Z,11.44
2022-12-23T23:24:50.353Z,10.89
2022-12-23T23:27:17.007Z,10.99
2022-12-23T23:29:43.695Z,11.34
2022-12-23T23:32:10.811Z,10.98
2022-12-23T23:34:38.172Z,10.65
2022-12-23T23:37:05.299Z,11.60
2022-12-23T23:39:32.193Z,11.04
2022-12-23T23:41:59.890Z,10.68
2022-12-23T23:44:27.038Z,10.57
2022-12-23T23:46:53.806Z,10.80
2022-12-23T23:49:21.078Z,10.73
2022-12-23T23:51:48.052Z,10.49
2022-12-23T23:54:14.777Z,11.48
2022-12-23T23:56:42.245Z,11.11
2022-12-23T23:59:09.193Z,11.42
